createdAt,value
2019-02-10T00:00:50.138Z,0
2019-02-10T00:01:50.385Z,0
2019-02-10T00:02:49.580Z,0
2019-02-10T00:03:49.977Z,0
2019-02-10T00:04:49.795Z,0
2019-02-10T00:05:50.099Z,0
2019-02-10T00:06:49.751Z,0
2019-02-10T00:07:49.991Z,0
2019-02-10T00:08:49.728Z,0
2019-02-10T00:09:50.202Z,0
2019-02-10T00:10:49.953Z,0
2019-02-10T00:11:49.928Z,0
2019-02-10T00:12:49.905Z,0
2019-02-10T00:13:49.633Z,0
2019-02-10T00:14:49.853Z,0
2019-02-10T00:15:49.592Z,0
2019-02-10T00:16:49.637Z,0
2019-02-10T00:17:49.077Z,0
2019-02-10T00:18:49.541Z,0
2019-02-10T00:19:49.508Z,0
2019-02-10T00:20:49.822Z,0
2019-02-10T00:21:49.747Z,0
2019-02-10T00:22:49.457Z,0
2019-02-10T00:23:49.196Z,0
2019-02-10T00:24:49.923Z,0
2019-02-10T00:25:49.398Z,0
2019-02-10T00:26:49.622Z,0
2019-02-10T00:27:49.565Z,0
2019-02-10T00:28:49.600Z,0
2019-02-10T00:29:49.064Z,0
2019-02-10T00:30:49.309Z,0
2019-02-10T00:31:49.606Z,0
2019-02-10T00:32:49.562Z,0
2019-02-10T00:33:49.272Z,0
2019-02-10T00:34:49.223Z,0
2019-02-10T00:35:49.460Z,0
2019-02-10T00:36:49.282Z,0
2019-02-10T00:37:49.421Z,0
2019-02-10T00:38:49.666Z,0
2019-02-10T00:39:49.622Z,0
2019-02-10T00:40:49.102Z,0
2019-02-10T00:41:49.348Z,0
2019-02-10T00:42:49.313Z,0
2019-02-10T00:43:49.610Z,0
2019-02-10T00:44:49.527Z,0
2019-02-10T00:45:49.012Z,0
2019-02-10T00:46:48.992Z,0
2019-02-10T00:47:49.519Z,0
2019-02-10T00:48:49.270Z,0
2019-02-10T00:49:49.458Z,0
2019-02-10T00:50:49.179Z,0
2019-02-10T00:51:48.890Z,0
2019-02-10T00:52:48.626Z,0
2019-02-10T00:53:49.423Z,0
2019-02-10T00:54:49.083Z,0
2019-02-10T00:55:48.833Z,0
2019-02-10T00:56:49.182Z,0
2019-02-10T00:57:49.325Z,0
2019-02-10T00:58:48.764Z,0
2019-02-10T00:59:48.750Z,0
2019-02-10T01:00:49.234Z,0
2019-02-10T01:01:48.957Z,0
2019-02-10T01:02:48.462Z,0
2019-02-10T01:03:48.694Z,0
2019-02-10T01:04:48.905Z,0
2019-02-10T01:05:48.878Z,0
2019-02-10T01:06:50.771Z,0
2019-02-10T01:07:48.595Z,0
2019-02-10T01:08:48.851Z,0
2019-02-10T01:09:48.810Z,0
2019-02-10T01:10:48.291Z,0
2019-02-10T01:11:49.548Z,0
2019-02-10T01:12:48.487Z,0
2019-02-10T01:13:48.234Z,0
2019-02-10T01:14:48.453Z,0
2019-02-10T01:15:48.948Z,0
2019-02-10T01:16:48.661Z,0
2019-02-10T01:17:48.681Z,0
2019-02-10T01:18:48.122Z,0
2019-02-10T01:19:48.605Z,0
2019-02-10T01:20:48.603Z,0
2019-02-10T01:21:48.841Z,0
2019-02-10T01:22:48.291Z,0
2019-02-10T01:23:48.548Z,0
2019-02-10T01:24:48.493Z,0
2019-02-10T01:25:48.267Z,0
2019-02-10T01:26:48.222Z,0
2019-02-10T01:27:48.453Z,0
2019-02-10T01:28:48.705Z,0
2019-02-10T01:29:48.170Z,0
2019-02-10T01:30:48.649Z,0
2019-02-10T01:31:48.155Z,0
2019-02-10T01:32:48.098Z,0
2019-02-10T01:33:48.337Z,0
2019-02-10T01:34:48.061Z,0
2019-02-10T01:35:48.295Z,0
2019-02-10T01:36:56.585Z,0
2019-02-10T01:37:48.554Z,0
2019-02-10T01:38:48.019Z,0
2019-02-10T01:39:47.978Z,0
2019-02-10T01:40:47.698Z,0
2019-02-10T01:41:48.234Z,0
2019-02-10T01:42:47.927Z,0
2019-02-10T01:43:47.642Z,0
2019-02-10T01:44:48.132Z,0
2019-02-10T01:45:47.607Z,0
2019-02-10T01:46:48.094Z,0
2019-02-10T01:47:47.574Z,0
2019-02-10T01:48:48.056Z,0
2019-02-10T01:49:47.777Z,0
2019-02-10T01:50:48.015Z,0
2019-02-10T01:51:47.992Z,0
2019-02-10T01:52:47.740Z,0
2019-02-10T01:53:47.714Z,0
2019-02-10T01:54:48.198Z,0
2019-02-10T01:55:47.674Z,0
2019-02-10T01:56:48.168Z,0
2019-02-10T01:57:47.889Z,0
2019-02-10T01:58:47.869Z,0
2019-02-10T01:59:47.839Z,0
2019-02-10T02:00:48.080Z,0
2019-02-10T02:01:47.821Z,0
2019-02-10T02:02:47.684Z,0
2019-02-10T02:03:47.514Z,0
2019-02-10T02:04:47.753Z,0
2019-02-10T02:05:47.486Z,0
2019-02-10T02:06:47.479Z,0
2019-02-10T02:07:47.991Z,0
2019-02-10T02:08:47.450Z,0
2019-02-10T02:09:47.942Z,0
2019-02-10T02:10:47.134Z,0
2019-02-10T02:11:47.653Z,0
2019-02-10T02:12:47.602Z,0
2019-02-10T02:13:47.864Z,0
2019-02-10T02:14:47.297Z,0
2019-02-10T02:15:47.295Z,0
2019-02-10T02:16:47.524Z,0
2019-02-10T02:17:47.535Z,0
2019-02-10T02:18:47.235Z,0
2019-02-10T02:19:47.724Z,0
2019-02-10T02:20:47.455Z,0
2019-02-10T02:21:47.174Z,0
2019-02-10T02:22:47.151Z,0
2019-02-10T02:23:47.429Z,0
2019-02-10T02:24:47.629Z,0
2019-02-10T02:25:46.849Z,0
2019-02-10T02:26:47.357Z,0
2019-02-10T02:27:46.803Z,0
2019-02-10T02:28:47.035Z,0
2019-02-10T02:29:47.028Z,0
2019-02-10T02:30:46.744Z,0
2019-02-10T02:31:47.278Z,0
2019-02-10T02:32:47.074Z,0
2019-02-10T02:33:47.204Z,0
2019-02-10T02:34:47.173Z,0
2019-02-10T02:35:47.193Z,0
2019-02-10T02:36:47.189Z,0
2019-02-10T02:37:46.630Z,0
2019-02-10T02:38:46.955Z,0
2019-02-10T02:39:46.570Z,0
2019-02-10T02:40:47.046Z,0
2019-02-10T02:41:47.038Z,0
2019-02-10T02:42:47.021Z,0
2019-02-10T02:43:46.994Z,0
2019-02-10T02:44:47.033Z,0
2019-02-10T02:45:46.971Z,0
2019-02-10T02:46:46.701Z,0
2019-02-10T02:47:47.187Z,0
2019-02-10T02:48:46.911Z,0
2019-02-10T02:49:46.664Z,0
2019-02-10T02:50:46.914Z,0
2019-02-10T02:51:46.657Z,0
2019-02-10T02:52:46.872Z,0
2019-02-10T02:53:46.811Z,0
2019-02-10T02:54:46.572Z,0
2019-02-10T02:55:46.646Z,0
2019-02-10T02:56:46.487Z,0
2019-02-10T02:57:46.473Z,0
2019-02-10T02:58:46.239Z,0
2019-02-10T02:59:46.734Z,0
2019-02-10T03:00:46.455Z,0
2019-02-10T03:01:46.385Z,0
2019-02-10T03:02:46.891Z,0
2019-02-10T03:03:46.250Z,0
2019-02-10T03:04:46.342Z,0
2019-02-10T03:05:46.567Z,0
2019-02-10T03:06:46.542Z,0
2019-02-10T03:07:46.029Z,0
2019-02-10T03:08:46.762Z,0
2019-02-10T03:09:46.250Z,0
2019-02-10T03:10:46.331Z,0
2019-02-10T03:11:46.249Z,0
2019-02-10T03:12:46.187Z,0
2019-02-10T03:13:46.461Z,0
2019-02-10T03:14:46.132Z,0
2019-02-10T03:15:45.865Z,0
2019-02-10T03:16:46.414Z,0
2019-02-10T03:17:46.443Z,0
2019-02-10T03:18:55.432Z,0
2019-02-10T03:19:46.339Z,0
2019-02-10T03:20:45.757Z,0
2019-02-10T03:21:46.000Z,0
2019-02-10T03:22:46.227Z,0
2019-02-10T03:23:45.950Z,0
2019-02-10T03:24:46.690Z,0
2019-02-10T03:25:46.181Z,0
2019-02-10T03:26:46.180Z,0
2019-02-10T03:27:45.870Z,0
2019-02-10T03:28:46.099Z,0
2019-02-10T03:29:46.142Z,0
2019-02-10T03:30:45.829Z,0
2019-02-10T03:31:45.874Z,0
2019-02-10T03:32:46.076Z,0
2019-02-10T03:33:46.003Z,0
2019-02-10T03:34:46.002Z,0
2019-02-10T03:35:45.459Z,0
2019-02-10T03:36:45.959Z,0
2019-02-10T03:37:45.707Z,0
2019-02-10T03:38:45.512Z,0
2019-02-10T03:39:45.888Z,0
2019-02-10T03:40:46.119Z,0
2019-02-10T03:41:45.846Z,0
2019-02-10T03:42:46.085Z,0
2019-02-10T03:43:45.658Z,0
2019-02-10T03:44:45.854Z,0
2019-02-10T03:45:45.525Z,0
2019-02-10T03:46:45.770Z,0
2019-02-10T03:47:45.989Z,0
2019-02-10T03:48:45.451Z,0
2019-02-10T03:49:45.943Z,0
2019-02-10T03:50:45.678Z,0
2019-02-10T03:51:45.544Z,0
2019-02-10T03:52:45.381Z,0
2019-02-10T03:53:45.101Z,0
2019-02-10T03:54:45.358Z,0
2019-02-10T03:55:45.325Z,0
2019-02-10T03:56:45.298Z,0
2019-02-10T03:57:45.787Z,0
2019-02-10T03:58:45.551Z,0
2019-02-10T03:59:44.976Z,0
2019-02-10T04:00:45.228Z,0
2019-02-10T04:01:45.442Z,0
2019-02-10T04:02:44.919Z,0
2019-02-10T04:03:45.419Z,0
2019-02-10T04:04:45.634Z,0
2019-02-10T04:05:45.361Z,0
2019-02-10T04:06:45.107Z,0
2019-02-10T04:07:45.945Z,0
2019-02-10T04:08:45.045Z,0
2019-02-10T04:09:45.029Z,0
2019-02-10T04:10:45.277Z,0
2019-02-10T04:11:45.498Z,0
2019-02-10T04:12:45.488Z,0
2019-02-10T04:13:44.943Z,0
2019-02-10T04:14:45.179Z,0
2019-02-10T04:15:44.648Z,0
2019-02-10T04:16:45.190Z,0
2019-02-10T04:17:45.119Z,0
2019-02-10T04:18:44.849Z,0
2019-02-10T04:19:44.570Z,0
2019-02-10T04:20:45.324Z,0
2019-02-10T04:21:44.801Z,0
2019-02-10T04:22:45.120Z,0
2019-02-10T04:23:44.989Z,0
2019-02-10T04:24:44.979Z,0
2019-02-10T04:25:44.975Z,0
2019-02-10T04:26:44.959Z,0
2019-02-10T04:27:44.653Z,0
2019-02-10T04:28:44.886Z,0
2019-02-10T04:29:45.145Z,0
2019-02-10T04:30:44.366Z,0
2019-02-10T04:31:44.591Z,0
2019-02-10T04:32:44.820Z,0
2019-02-10T04:33:45.058Z,0
2019-02-10T04:34:44.854Z,0
2019-02-10T04:35:44.514Z,0
2019-02-10T04:36:44.487Z,0
2019-02-10T04:37:53.018Z,0
2019-02-10T04:38:44.681Z,0
2019-02-10T04:39:44.768Z,0
2019-02-10T04:40:44.164Z,0
2019-02-10T04:41:44.398Z,0
2019-02-10T04:42:44.607Z,0
2019-02-10T04:43:44.189Z,0
2019-02-10T04:44:44.101Z,0
2019-02-10T04:45:44.582Z,0
2019-02-10T04:46:44.531Z,0
2019-02-10T04:47:44.779Z,0
2019-02-10T04:48:44.229Z,0
2019-02-10T04:49:44.203Z,0
2019-02-10T04:50:44.438Z,0
2019-02-10T04:51:43.922Z,0
2019-02-10T04:52:44.761Z,0
2019-02-10T04:53:44.134Z,0
2019-02-10T04:54:44.633Z,0
2019-02-10T04:55:43.825Z,0
2019-02-10T04:56:44.721Z,0
2019-02-10T04:57:44.308Z,0
2019-02-10T04:58:43.790Z,0
2019-02-10T04:59:44.280Z,0
2019-02-10T05:00:44.511Z,0
2019-02-10T05:01:44.091Z,0
2019-02-10T05:02:43.959Z,0
2019-02-10T05:03:44.184Z,0
2019-02-10T05:04:43.679Z,0
2019-02-10T05:05:44.404Z,0
2019-02-10T05:06:43.601Z,0
2019-02-10T05:07:43.591Z,0
2019-02-10T05:08:44.075Z,0
2019-02-10T05:09:44.091Z,0
2019-02-10T05:10:44.048Z,0
2019-02-10T05:11:43.764Z,0
2019-02-10T05:12:43.990Z,0
2019-02-10T05:13:43.748Z,0
2019-02-10T05:14:43.741Z,0
2019-02-10T05:15:43.469Z,0
2019-02-10T05:16:44.983Z,0
2019-02-10T05:17:44.230Z,0
2019-02-10T05:18:43.626Z,0
2019-02-10T05:19:43.354Z,0
2019-02-10T05:20:43.581Z,0
2019-02-10T05:21:43.809Z,0
2019-02-10T05:22:44.324Z,0
2019-02-10T05:23:43.774Z,0
2019-02-10T05:24:43.681Z,0
2019-02-10T05:25:43.717Z,0
2019-02-10T05:26:43.499Z,0
2019-02-10T05:27:43.438Z,0
2019-02-10T05:28:43.462Z,0
2019-02-10T05:29:43.655Z,0
2019-02-10T05:30:43.631Z,0
2019-02-10T05:31:43.880Z,0
2019-02-10T05:32:43.604Z,0
2019-02-10T05:33:43.834Z,0
2019-02-10T05:34:43.568Z,0
2019-02-10T05:35:43.323Z,0
2019-02-10T05:36:43.752Z,0
2019-02-10T05:37:43.491Z,0
2019-02-10T05:38:43.271Z,0
2019-02-10T05:39:43.459Z,0
2019-02-10T05:40:43.438Z,0
2019-02-10T05:41:43.270Z,0
2019-02-10T05:42:43.655Z,0
2019-02-10T05:43:43.107Z,0
2019-02-10T05:44:43.606Z,0
2019-02-10T05:45:43.085Z,0
2019-02-10T05:46:43.060Z,0
2019-02-10T05:47:43.041Z,0
2019-02-10T05:48:43.284Z,0
2019-02-10T05:49:43.537Z,0
2019-02-10T05:50:43.235Z,0
2019-02-10T05:51:42.713Z,0
2019-02-10T05:52:43.197Z,0
2019-02-10T05:53:43.489Z,0
2019-02-10T05:54:45.299Z,0
2019-02-10T05:55:42.616Z,0
2019-02-10T05:56:43.150Z,0
2019-02-10T05:57:43.094Z,0
2019-02-10T05:58:42.546Z,0
2019-02-10T05:59:43.345Z,0
2019-02-10T06:00:42.807Z,0
2019-02-10T06:01:42.997Z,0
2019-02-10T06:02:42.991Z,0
2019-02-10T06:03:42.444Z,0
2019-02-10T06:04:43.225Z,0
2019-02-10T06:05:42.935Z,0
2019-02-10T06:06:42.813Z,0
2019-02-10T06:07:43.152Z,0
2019-02-10T06:08:42.601Z,0
2019-02-10T06:09:42.877Z,0
2019-02-10T06:10:42.808Z,0
2019-02-10T06:11:43.055Z,0
2019-02-10T06:12:42.522Z,0
2019-02-10T06:13:42.758Z,0
2019-02-10T06:14:42.512Z,0
2019-02-10T06:15:43.009Z,0
2019-02-10T06:16:42.468Z,0
2019-02-10T06:17:42.428Z,0
2019-02-10T06:18:42.452Z,0
2019-02-10T06:19:42.393Z,0
2019-02-10T06:20:42.098Z,0
2019-02-10T06:21:42.853Z,0
2019-02-10T06:22:42.816Z,0
2019-02-10T06:23:42.090Z,0
2019-02-10T06:24:42.273Z,0
2019-02-10T06:25:41.996Z,0
2019-02-10T06:26:42.827Z,0
2019-02-10T06:27:41.949Z,0
2019-02-10T06:28:43.150Z,0
2019-02-10T06:29:42.418Z,0
2019-02-10T06:30:42.138Z,0
2019-02-10T06:31:42.128Z,0
2019-02-10T06:32:42.109Z,0
2019-02-10T06:33:42.086Z,0
2019-02-10T06:34:42.056Z,0
2019-02-10T06:35:42.563Z,0
2019-02-10T06:36:42.555Z,0
2019-02-10T06:37:42.006Z,0
2019-02-10T06:38:42.496Z,0
2019-02-10T06:39:42.239Z,0
2019-02-10T06:40:42.256Z,0
2019-02-10T06:41:41.416Z,0
2019-02-10T06:42:42.268Z,0
2019-02-10T06:43:41.931Z,0
2019-02-10T06:44:42.111Z,0
2019-02-10T06:45:42.118Z,0
2019-02-10T06:46:41.813Z,0
2019-02-10T06:47:41.601Z,0
2019-02-10T06:48:41.264Z,0
2019-02-10T06:49:42.026Z,0
2019-02-10T06:50:41.244Z,0
2019-02-10T06:51:41.783Z,0
2019-02-10T06:52:41.692Z,0
2019-02-10T06:53:41.421Z,0
2019-02-10T06:54:41.662Z,0
2019-02-10T06:55:41.377Z,0
2019-02-10T06:56:42.128Z,0
2019-02-10T06:57:41.858Z,0
2019-02-10T06:58:42.075Z,0
2019-02-10T06:59:41.325Z,0
2019-02-10T07:00:42.048Z,0
2019-02-10T07:01:42.055Z,0
2019-02-10T07:02:41.496Z,0
2019-02-10T07:03:41.222Z,0
2019-02-10T07:04:41.709Z,0
2019-02-10T07:05:40.948Z,0
2019-02-10T07:06:41.666Z,0
2019-02-10T07:07:41.404Z,0
2019-02-10T07:08:43.142Z,0
2019-02-10T07:09:41.343Z,0
2019-02-10T07:10:41.844Z,0
2019-02-10T07:11:41.585Z,0
2019-02-10T07:12:41.286Z,0
2019-02-10T07:13:41.275Z,0
2019-02-10T07:14:41.899Z,0
2019-02-10T07:15:41.232Z,0
2019-02-10T07:16:41.463Z,0
2019-02-10T07:17:41.482Z,0
2019-02-10T07:18:41.196Z,0
2019-02-10T07:19:40.902Z,0
2019-02-10T07:20:41.666Z,5
2019-02-10T07:21:40.851Z,5
2019-02-10T07:22:41.138Z,5
2019-02-10T07:23:41.342Z,5
2019-02-10T07:24:41.921Z,5
2019-02-10T07:25:40.819Z,5
2019-02-10T07:26:41.014Z,5
2019-02-10T07:27:41.243Z,5
2019-02-10T07:28:40.974Z,5
2019-02-10T07:29:41.207Z,10
2019-02-10T07:30:40.664Z,10
2019-02-10T07:31:41.165Z,5
2019-02-10T07:32:41.148Z,5
2019-02-10T07:33:41.127Z,5
2019-02-10T07:34:47.880Z,5
2019-02-10T07:35:41.353Z,5
2019-02-10T07:36:41.065Z,5
2019-02-10T07:37:40.797Z,5
2019-02-10T07:38:48.296Z,5
2019-02-10T07:39:40.806Z,10
2019-02-10T07:40:40.729Z,10
2019-02-10T07:41:40.976Z,10
2019-02-10T07:42:40.942Z,10
2019-02-10T07:43:41.202Z,10
2019-02-10T07:44:40.667Z,10
2019-02-10T07:45:40.377Z,10
2019-02-10T07:46:40.603Z,10
2019-02-10T07:47:40.845Z,10
2019-02-10T07:48:40.580Z,10
2019-02-10T07:49:40.550Z,10
2019-02-10T07:50:40.646Z,10
2019-02-10T07:51:40.856Z,10
2019-02-10T07:52:40.245Z,10
2019-02-10T07:53:40.231Z,10
2019-02-10T07:54:48.783Z,10
2019-02-10T07:55:40.980Z,10
2019-02-10T07:56:40.456Z,10
2019-02-10T07:57:40.651Z,15
2019-02-10T07:58:40.510Z,15
2019-02-10T07:59:39.852Z,15
2019-02-10T08:00:42.376Z,15
2019-02-10T08:01:40.307Z,15
2019-02-10T08:02:40.287Z,15
2019-02-10T08:03:40.891Z,15
2019-02-10T08:04:40.025Z,15
2019-02-10T08:05:39.980Z,20
2019-02-10T08:06:40.214Z,25
2019-02-10T08:07:40.221Z,25
2019-02-10T08:08:46.420Z,25
2019-02-10T08:09:40.432Z,20
2019-02-10T08:10:40.682Z,20
2019-02-10T08:11:40.257Z,20
2019-02-10T08:12:40.359Z,15
2019-02-10T08:13:40.606Z,15
2019-02-10T08:14:40.570Z,15
2019-02-10T08:15:39.774Z,15
2019-02-10T08:16:40.531Z,10
2019-02-10T08:17:40.248Z,15
2019-02-10T08:18:40.229Z,15
2019-02-10T08:19:40.200Z,15
2019-02-10T08:20:40.540Z,15
2019-02-10T08:21:39.430Z,15
2019-02-10T08:22:40.147Z,15
2019-02-10T08:23:40.143Z,15
2019-02-10T08:24:40.107Z,15
2019-02-10T08:25:39.872Z,20
2019-02-10T08:26:40.093Z,20
2019-02-10T08:27:39.817Z,20
2019-02-10T08:28:39.832Z,20
2019-02-10T08:29:40.078Z,20
2019-02-10T08:30:40.005Z,25
2019-02-10T08:31:39.735Z,20
2019-02-10T08:32:39.722Z,20
2019-02-10T08:33:40.191Z,20
2019-02-10T08:34:39.911Z,15
2019-02-10T08:35:39.959Z,15
2019-02-10T08:36:39.926Z,25
2019-02-10T08:37:39.622Z,25
2019-02-10T08:38:40.697Z,25
2019-02-10T08:39:39.822Z,20
2019-02-10T08:40:40.062Z,25
2019-02-10T08:41:40.141Z,25
2019-02-10T08:42:39.547Z,25
2019-02-10T08:43:40.004Z,20
2019-02-10T08:44:39.214Z,30
2019-02-10T08:45:39.725Z,25
2019-02-10T08:46:39.630Z,25
2019-02-10T08:47:43.533Z,25
2019-02-10T08:48:39.145Z,30
2019-02-10T08:49:39.639Z,30
2019-02-10T08:50:39.603Z,30
2019-02-10T08:51:39.331Z,30
2019-02-10T08:52:39.567Z,30
2019-02-10T08:53:39.351Z,30
2019-02-10T08:54:39.293Z,25
2019-02-10T08:55:39.243Z,25
2019-02-10T08:56:39.504Z,30
2019-02-10T08:57:39.502Z,35
2019-02-10T08:58:38.944Z,35
2019-02-10T08:59:39.678Z,30
2019-02-10T09:00:38.899Z,30
2019-02-10T09:01:39.193Z,35
2019-02-10T09:02:39.140Z,40
2019-02-10T09:03:39.375Z,45
2019-02-10T09:04:38.832Z,45
2019-02-10T09:05:39.359Z,45
2019-02-10T09:06:39.049Z,45
2019-02-10T09:07:39.274Z,45
2019-02-10T09:08:38.773Z,50
2019-02-10T09:09:38.513Z,40
2019-02-10T09:10:39.233Z,45
2019-02-10T09:11:38.700Z,35
2019-02-10T09:12:39.190Z,30
2019-02-10T09:13:39.420Z,30
2019-02-10T09:14:39.196Z,25
2019-02-10T09:15:39.131Z,30
2019-02-10T09:16:38.625Z,30
2019-02-10T09:17:38.836Z,30
2019-02-10T09:18:38.551Z,30
2019-02-10T09:19:38.860Z,25
2019-02-10T09:20:38.762Z,30
2019-02-10T09:21:39.252Z,30
2019-02-10T09:22:39.249Z,45
2019-02-10T09:23:38.543Z,55
2019-02-10T09:24:39.344Z,65
2019-02-10T09:25:39.148Z,85
2019-02-10T09:26:38.937Z,70
2019-02-10T09:27:38.890Z,45
2019-02-10T09:28:38.123Z,45
2019-02-10T09:29:38.909Z,45
2019-02-10T09:30:39.082Z,35
2019-02-10T09:31:40.479Z,30
2019-02-10T09:32:38.797Z,30
2019-02-10T09:33:38.784Z,30
2019-02-10T09:34:38.956Z,35
2019-02-10T09:35:38.750Z,45
2019-02-10T09:36:38.474Z,45
2019-02-10T09:37:38.654Z,50
2019-02-10T09:38:38.940Z,55
2019-02-10T09:39:38.468Z,55
2019-02-10T09:40:38.653Z,55
2019-02-10T09:41:38.877Z,55
2019-02-10T09:42:38.616Z,65
2019-02-10T09:43:38.619Z,100
2019-02-10T09:44:39.559Z,95
2019-02-10T09:45:38.549Z,95
2019-02-10T09:46:38.263Z,70
2019-02-10T09:47:38.518Z,70
2019-02-10T09:48:38.258Z,90
2019-02-10T09:49:38.732Z,85
2019-02-10T09:50:38.215Z,55
2019-02-10T09:51:38.187Z,65
2019-02-10T09:52:38.420Z,55
2019-02-10T09:53:37.640Z,70
2019-02-10T09:54:38.218Z,70
2019-02-10T09:55:38.129Z,80
2019-02-10T09:56:38.391Z,80
2019-02-10T09:57:38.120Z,70
2019-02-10T09:58:38.322Z,65
2019-02-10T09:59:37.836Z,65
2019-02-10T10:00:38.283Z,90
2019-02-10T10:01:38.268Z,85
2019-02-10T10:02:38.289Z,85
2019-02-10T10:03:37.954Z,70
2019-02-10T10:04:37.486Z,60
2019-02-10T10:05:37.920Z,55
2019-02-10T10:06:38.155Z,55
2019-02-10T10:07:37.884Z,50
2019-02-10T10:08:38.387Z,55
2019-02-10T10:09:38.159Z,45
2019-02-10T10:10:37.575Z,50
2019-02-10T10:11:38.336Z,50
2019-02-10T10:12:37.298Z,50
2019-02-10T10:13:37.771Z,50
2019-02-10T10:14:40.448Z,50
2019-02-10T10:15:38.253Z,45
2019-02-10T10:16:37.971Z,45
2019-02-10T10:17:38.004Z,45
2019-02-10T10:18:37.426Z,40
2019-02-10T10:19:37.655Z,40
2019-02-10T10:20:38.197Z,45
2019-02-10T10:21:37.357Z,50
2019-02-10T10:22:37.627Z,55
2019-02-10T10:23:38.114Z,55
2019-02-10T10:24:37.582Z,55
2019-02-10T10:25:37.817Z,50
2019-02-10T10:26:37.284Z,45
2019-02-10T10:27:37.789Z,45
2019-02-10T10:28:37.517Z,45
2019-02-10T10:29:37.734Z,50
2019-02-10T10:30:37.972Z,45
2019-02-10T10:31:37.706Z,45
2019-02-10T10:32:37.163Z,45
2019-02-10T10:33:39.262Z,40
2019-02-10T10:34:37.390Z,40
2019-02-10T10:35:37.711Z,35
2019-02-10T10:36:37.403Z,35
2019-02-10T10:37:37.326Z,40
2019-02-10T10:38:37.563Z,40
2019-02-10T10:39:37.810Z,40
2019-02-10T10:40:37.919Z,40
2019-02-10T10:41:37.485Z,40
2019-02-10T10:42:37.217Z,40
2019-02-10T10:43:37.230Z,40
2019-02-10T10:44:37.202Z,45
2019-02-10T10:45:37.163Z,40
2019-02-10T10:46:37.165Z,40
2019-02-10T10:47:37.160Z,40
2019-02-10T10:48:37.118Z,40
2019-02-10T10:49:37.334Z,40
2019-02-10T10:50:37.336Z,40
2019-02-10T10:51:37.095Z,40
2019-02-10T10:52:37.295Z,40
2019-02-10T10:53:37.021Z,40
2019-02-10T10:54:45.223Z,40
2019-02-10T10:55:37.059Z,40
2019-02-10T10:56:37.470Z,40
2019-02-10T10:57:37.189Z,45
2019-02-10T10:58:36.927Z,45
2019-02-10T10:59:37.190Z,45
2019-02-10T11:00:36.942Z,40
2019-02-10T11:01:37.117Z,40
2019-02-10T11:02:36.854Z,35
2019-02-10T11:03:36.825Z,40
2019-02-10T11:04:37.055Z,35
2019-02-10T11:05:36.804Z,35
2019-02-10T11:06:38.565Z,35
2019-02-10T11:07:36.744Z,45
2019-02-10T11:08:36.994Z,40
2019-02-10T11:09:46.314Z,45
2019-02-10T11:10:37.560Z,45
2019-02-10T11:11:36.664Z,50
2019-02-10T11:12:36.670Z,50
2019-02-10T11:13:37.140Z,60
2019-02-10T11:14:36.349Z,60
2019-02-10T11:15:37.159Z,60
2019-02-10T11:16:36.337Z,65
2019-02-10T11:17:36.548Z,75
2019-02-10T11:18:37.061Z,80
2019-02-10T11:19:36.537Z,85
2019-02-10T11:20:36.496Z,85
2019-02-10T11:21:37.169Z,85
2019-02-10T11:22:36.452Z,90
2019-02-10T11:23:36.707Z,80
2019-02-10T11:24:38.217Z,70
2019-02-10T11:25:36.627Z,80
2019-02-10T11:26:36.383Z,85
2019-02-10T11:27:36.610Z,90
2019-02-10T11:28:36.337Z,90
2019-02-10T11:29:36.081Z,80
2019-02-10T11:30:36.565Z,75
2019-02-10T11:31:36.813Z,70
2019-02-10T11:32:36.561Z,70
2019-02-10T11:33:36.503Z,70
2019-02-10T11:34:36.227Z,75
2019-02-10T11:35:36.507Z,80
2019-02-10T11:36:36.880Z,75
2019-02-10T11:37:38.345Z,95
2019-02-10T11:38:35.925Z,95
2019-02-10T11:39:43.514Z,100
2019-02-10T11:40:36.162Z,100
2019-02-10T11:41:36.409Z,95
2019-02-10T11:42:36.343Z,100
2019-02-10T11:43:36.342Z,90
2019-02-10T11:44:35.560Z,70
2019-02-10T11:45:36.096Z,55
2019-02-10T11:46:35.784Z,60
2019-02-10T11:47:36.248Z,65
2019-02-10T11:48:36.522Z,85
2019-02-10T11:49:36.441Z,100
2019-02-10T11:50:36.214Z,120
2019-02-10T11:51:35.689Z,105
2019-02-10T11:52:35.903Z,105
2019-02-10T11:53:36.150Z,110
2019-02-10T11:54:35.863Z,105
2019-02-10T11:55:35.826Z,100
2019-02-10T11:56:35.917Z,70
2019-02-10T11:57:36.051Z,75
2019-02-10T11:58:35.793Z,75
2019-02-10T11:59:36.063Z,85
2019-02-10T12:00:35.742Z,70
2019-02-10T12:01:36.226Z,75
2019-02-10T12:02:42.646Z,95
2019-02-10T12:03:35.945Z,115
2019-02-10T12:04:35.915Z,145
2019-02-10T12:05:35.665Z,125
2019-02-10T12:06:35.889Z,95
2019-02-10T12:07:35.866Z,50
2019-02-10T12:08:44.705Z,65
2019-02-10T12:09:35.348Z,70
2019-02-10T12:10:35.582Z,75
2019-02-10T12:11:35.792Z,80
2019-02-10T12:12:35.544Z,65
2019-02-10T12:13:35.785Z,35
2019-02-10T12:14:35.473Z,45
2019-02-10T12:15:35.963Z,55
2019-02-10T12:16:36.045Z,85
2019-02-10T12:17:35.679Z,105
2019-02-10T12:18:35.912Z,105
2019-02-10T12:19:35.992Z,115
2019-02-10T12:20:35.108Z,145
2019-02-10T12:21:35.643Z,120
2019-02-10T12:22:35.591Z,140
2019-02-10T12:23:35.849Z,120
2019-02-10T12:24:35.818Z,110
2019-02-10T12:25:34.772Z,105
2019-02-10T12:26:35.539Z,85
2019-02-10T12:27:35.498Z,80
2019-02-10T12:28:35.512Z,70
2019-02-10T12:29:35.461Z,65
2019-02-10T12:30:35.709Z,55
2019-02-10T12:31:35.681Z,50
2019-02-10T12:32:35.413Z,55
2019-02-10T12:33:35.440Z,50
2019-02-10T12:34:34.894Z,55
2019-02-10T12:35:35.624Z,40
2019-02-10T12:36:35.329Z,30
2019-02-10T12:37:42.053Z,30
2019-02-10T12:38:34.806Z,40
2019-02-10T12:39:35.526Z,45
2019-02-10T12:40:35.512Z,45
2019-02-10T12:41:34.980Z,45
2019-02-10T12:42:34.506Z,30
2019-02-10T12:43:34.941Z,30
2019-02-10T12:44:34.671Z,25
2019-02-10T12:45:35.418Z,25
2019-02-10T12:46:35.186Z,25
2019-02-10T12:47:35.118Z,25
2019-02-10T12:48:35.350Z,15
2019-02-10T12:49:35.077Z,15
2019-02-10T12:50:34.318Z,15
2019-02-10T12:51:35.086Z,50
2019-02-10T12:52:34.792Z,90
2019-02-10T12:53:34.747Z,95
2019-02-10T12:54:35.000Z,100
2019-02-10T12:55:35.973Z,90
2019-02-10T12:56:34.979Z,85
2019-02-10T12:57:34.480Z,80
2019-02-10T12:58:34.906Z,75
2019-02-10T12:59:34.891Z,70
2019-02-10T13:00:34.904Z,65
2019-02-10T13:01:34.859Z,75
2019-02-10T13:02:35.140Z,85
2019-02-10T13:03:34.327Z,85
2019-02-10T13:04:35.117Z,80
2019-02-10T13:05:34.829Z,80
2019-02-10T13:06:34.513Z,80
2019-02-10T13:07:34.763Z,80
2019-02-10T13:08:34.987Z,75
2019-02-10T13:09:34.191Z,80
2019-02-10T13:10:34.696Z,80
2019-02-10T13:11:34.413Z,70
2019-02-10T13:12:34.642Z,55
2019-02-10T13:13:34.898Z,40
2019-02-10T13:14:34.617Z,35
2019-02-10T13:15:36.091Z,30
2019-02-10T13:16:34.063Z,25
2019-02-10T13:17:34.288Z,25
2019-02-10T13:18:34.279Z,35
2019-02-10T13:19:34.778Z,40
2019-02-10T13:20:34.504Z,45
2019-02-10T13:21:33.975Z,40
2019-02-10T13:22:34.194Z,45
2019-02-10T13:23:34.434Z,50
2019-02-10T13:24:34.418Z,55
2019-02-10T13:25:34.604Z,50
2019-02-10T13:26:34.147Z,50
2019-02-10T13:27:34.109Z,50
2019-02-10T13:28:34.876Z,50
2019-02-10T13:29:34.060Z,55
2019-02-10T13:30:36.270Z,50
2019-02-10T13:31:34.547Z,40
2019-02-10T13:32:34.065Z,35
2019-02-10T13:33:34.566Z,30
2019-02-10T13:34:35.248Z,25
2019-02-10T13:35:33.944Z,30
2019-02-10T13:36:33.941Z,35
2019-02-10T13:37:34.180Z,40
2019-02-10T13:38:34.443Z,95
2019-02-10T13:39:34.123Z,120
2019-02-10T13:40:35.142Z,110
2019-02-10T13:41:34.099Z,110
2019-02-10T13:42:33.552Z,95
2019-02-10T13:43:40.270Z,95
2019-02-10T13:44:33.539Z,100
2019-02-10T13:45:33.519Z,60
2019-02-10T13:46:34.261Z,55
2019-02-10T13:47:33.725Z,40
2019-02-10T13:48:34.216Z,40
2019-02-10T13:49:33.423Z,45
2019-02-10T13:50:33.663Z,55
2019-02-10T13:51:33.941Z,60
2019-02-10T13:52:33.632Z,55
2019-02-10T13:53:34.117Z,65
2019-02-10T13:54:33.579Z,55
2019-02-10T13:55:33.331Z,60
2019-02-10T13:56:33.799Z,80
2019-02-10T13:57:33.833Z,80
2019-02-10T13:58:33.821Z,80
2019-02-10T13:59:33.534Z,90
2019-02-10T14:00:33.848Z,75
2019-02-10T14:01:33.479Z,60
2019-02-10T14:02:33.474Z,50
2019-02-10T14:03:33.716Z,40
2019-02-10T14:04:33.395Z,40
2019-02-10T14:05:33.383Z,40
2019-02-10T14:06:33.121Z,40
2019-02-10T14:07:33.346Z,45
2019-02-10T14:08:33.064Z,55
2019-02-10T14:09:33.098Z,65
2019-02-10T14:10:35.351Z,80
2019-02-10T14:11:33.544Z,90
2019-02-10T14:12:33.754Z,125
2019-02-10T14:13:33.470Z,135
2019-02-10T14:14:32.984Z,135
2019-02-10T14:15:33.188Z,105
2019-02-10T14:16:33.191Z,95
2019-02-10T14:17:32.890Z,70
2019-02-10T14:18:33.443Z,55
2019-02-10T14:19:33.109Z,50
2019-02-10T14:20:33.593Z,45
2019-02-10T14:21:33.068Z,35
2019-02-10T14:22:32.829Z,30
2019-02-10T14:23:33.337Z,25
2019-02-10T14:24:33.088Z,30
2019-02-10T14:25:33.250Z,20
2019-02-10T14:26:33.243Z,15
2019-02-10T14:27:32.960Z,15
2019-02-10T14:28:33.211Z,15
2019-02-10T14:29:33.185Z,15
2019-02-10T14:30:33.215Z,15